createdAt,value
2023-04-12T00:03:28.508Z,99871.34
2023-04-12T00:13:31.325Z,99868.84
2023-04-12T00:23:34.300Z,99863.19
2023-04-12T00:33:36.453Z,99880.78
2023-04-12T00:43:40.857Z,99874.25
2023-04-12T00:53:42.992Z,99868.72
2023-04-12T01:03:45.189Z,99851.09
2023-04-12T01:14:19.884Z,99859.00
2023-04-12T01:24:46.266Z,99854.63
2023-04-12T01:34:48.525Z,99874.38
2023-04-12T01:44:51.622Z,99864.00
2023-04-12T01:54:57.421Z,99869.16
2023-04-12T02:05:01.193Z,99872.47
2023-04-12T02:15:03.985Z,99856.19
2023-04-12T02:25:09.100Z,99853.59
2023-04-12T02:35:18.468Z,99849.44
2023-04-12T02:45:20.418Z,99845.88
2023-04-12T02:55:25.941Z,99848.44
2023-04-12T03:05:27.876Z,99872.41
2023-04-12T03:15:29.844Z,99862.25
2023-04-12T03:25:32.885Z,99858.72
2023-04-12T03:35:34.834Z,99873.25
2023-04-12T03:45:37.806Z,99866.44
2023-04-12T03:55:39.799Z,99877.56
2023-04-12T04:05:42.096Z,99870.53
2023-04-12T04:15:44.070Z,99869.63
2023-04-12T04:25:47.345Z,99885.94
2023-04-12T04:35:49.394Z,99891.00
2023-04-12T04:45:54.822Z,99887.47
2023-04-12T04:56:01.643Z,99898.59
2023-04-12T05:06:03.681Z,99900.22
2023-04-12T05:16:09.358Z,99901.00
2023-04-12T05:26:11.557Z,99917.03
2023-04-12T05:36:15.878Z,99917.53
2023-04-12T05:46:23.782Z,99918.53
2023-04-12T05:56:25.923Z,99924.31
2023-04-12T06:06:30.593Z,99918.81
2023-04-12T06:16:32.672Z,99914.28
2023-04-12T06:26:40.255Z,99907.28
2023-04-12T06:36:43.802Z,99916.84
2023-04-12T06:46:45.858Z,99910.81
2023-04-12T06:56:48.148Z,99922.31
2023-04-12T07:06:50.131Z,99922.22
2023-04-12T07:16:52.045Z,99928.94
2023-04-12T07:26:55.284Z,99931.41
2023-04-12T07:36:57.335Z,99927.56
2023-04-12T07:46:59.261Z,99932.91
2023-04-12T07:57:05.715Z,99936.69
2023-04-12T08:07:07.762Z,99940.84
2023-04-12T08:17:09.786Z,99934.41
2023-04-12T08:27:14.155Z,99927.75
2023-04-12T08:37:17.226Z,99942.13
2023-04-12T08:47:19.992Z,99956.75
2023-04-12T08:57:22.310Z,99949.13
2023-04-12T09:07:28.053Z,99911.59
2023-04-12T09:17:30.202Z,99904.22
2023-04-12T09:27:47.159Z,99902.25
2023-04-12T09:37:58.404Z,99896.91
2023-04-12T09:48:00.645Z,99893.97
2023-04-12T09:58:05.163Z,99889.38
2023-04-12T10:08:08.424Z,99886.38
2023-04-12T10:18:14.581Z,99888.53
2023-04-12T10:28:21.964Z,99884.66
2023-04-12T10:38:27.028Z,99892.28
2023-04-12T10:48:51.089Z,99890.66
2023-04-12T10:58:53.072Z,99890.81
2023-04-12T11:08:56.726Z,99885.47
2023-04-12T11:19:01.064Z,99865.59
2023-04-12T11:29:08.157Z,99870.56
2023-04-12T11:39:10.678Z,99864.19
2023-04-12T11:49:17.850Z,99855.81
2023-04-12T11:59:19.907Z,99843.41
2023-04-12T12:09:24.204Z,99824.25
2023-04-12T12:19:56.205Z,99812.81
2023-04-12T12:30:01.875Z,99809.47
2023-04-12T12:40:11.223Z,99786.91
2023-04-12T12:50:14.524Z,99777.50
2023-04-12T13:00:17.309Z,99761.91
2023-04-12T13:10:20.643Z,99760.06
2023-04-12T13:20:23.293Z,99741.16
2023-04-12T13:30:25.684Z,99736.75
2023-04-12T13:40:27.742Z,99720.56
2023-04-12T13:50:29.694Z,99705.81
2023-04-12T14:00:31.751Z,99709.59
2023-04-12T14:10:33.818Z,99708.41
2023-04-12T14:20:35.796Z,99718.16
2023-04-12T14:30:37.899Z,99715.63
2023-04-12T14:40:39.992Z,99710.84
2023-04-12T14:50:42.007Z,99711.00
2023-04-12T15:00:45.388Z,99715.63
2023-04-12T15:10:48.020Z,99720.56
2023-04-12T15:20:50.035Z,99704.75
2023-04-12T15:30:52.049Z,99705.16
2023-04-12T15:40:56.302Z,99700.34
2023-04-12T15:50:58.493Z,99704.03
2023-04-12T16:01:02.729Z,99702.72
2023-04-12T16:11:04.999Z,99698.91
2023-04-12T16:21:07.128Z,99702.78
2023-04-12T16:31:10.926Z,99701.03
2023-04-12T16:41:13.203Z,99693.69
2023-04-12T16:51:16.666Z,99698.56
2023-04-12T17:01:22.588Z,99706.06
2023-04-12T17:11:24.689Z,99715.53
2023-04-12T17:21:27.667Z,99718.03
2023-04-12T17:31:37.696Z,99732.75
2023-04-12T17:41:41.444Z,99730.75
2023-04-12T17:51:44.006Z,99730.84
2023-04-12T18:01:48.759Z,99726.25
2023-04-12T18:11:52.195Z,99746.69
2023-04-12T18:21:54.686Z,99746.25
2023-04-12T18:31:57.940Z,99742.22
2023-04-12T18:42:03.960Z,99749.84
2023-04-12T18:52:06.304Z,99755.72
2023-04-12T19:02:09.738Z,99750.03
2023-04-12T19:12:18.596Z,99741.50
2023-04-12T19:22:30.409Z,99738.72
2023-04-12T19:32:34.546Z,99723.19
2023-04-12T19:42:37.548Z,99719.63
2023-04-12T19:53:18.979Z,99710.19
2023-04-12T20:03:22.563Z,99692.50
2023-04-12T20:13:25.713Z,99696.88
2023-04-12T20:23:30.096Z,99679.72
2023-04-12T20:33:33.943Z,99691.59
2023-04-12T20:43:48.387Z,99680.16
2023-04-12T20:53:51.862Z,99678.47
2023-04-12T21:03:54.562Z,99681.31
2023-04-12T21:13:56.636Z,99686.03
2023-04-12T21:23:58.557Z,99663.09
2023-04-12T21:34:00.497Z,99677.47
2023-04-12T21:44:02.364Z,99671.41
2023-04-12T21:54:04.462Z,99675.16
2023-04-12T22:04:06.965Z,99657.56
2023-04-12T22:14:11.455Z,99673.19
2023-04-12T22:24:13.623Z,99676.44
2023-04-12T22:34:15.573Z,99654.28
2023-04-12T22:44:18.605Z,99648.00
2023-04-12T22:54:32.454Z,99639.16
2023-04-12T23:04:34.407Z,99629.50
2023-04-12T23:14:37.825Z,99621.03
2023-04-12T23:24:39.724Z,99611.03
2023-04-12T23:34:41.663Z,99604.66
2023-04-12T23:44:43.539Z,99588.94
2023-04-12T23:54:52.864Z,99569.31
